createdAt,value
2019-04-30T00:00:20.830Z,11.80
2019-04-30T00:02:55.166Z,11.80
2019-04-30T00:05:25.151Z,11.90
2019-04-30T00:07:57.423Z,11.90
2019-04-30T00:10:35.948Z,11.90
2019-04-30T00:12:58.426Z,11.90
2019-04-30T00:15:28.068Z,11.90
2019-04-30T00:18:01.330Z,11.90
2019-04-30T00:20:30.109Z,11.90
2019-04-30T00:22:59.380Z,11.90
2019-04-30T00:25:28.725Z,12.00
2019-04-30T00:28:00.393Z,12.00
2019-04-30T00:30:29.132Z,12.00
2019-04-30T00:32:58.452Z,12.10
2019-04-30T00:35:27.736Z,12.10
2019-04-30T00:38:00.114Z,12.10
2019-04-30T00:40:30.086Z,12.10
2019-04-30T00:43:05.263Z,12.20
2019-04-30T00:45:40.049Z,12.20
2019-04-30T00:48:08.316Z,12.20
2019-04-30T00:50:38.939Z,12.20
2019-04-30T00:53:12.566Z,12.30
2019-04-30T00:55:46.771Z,12.30
2019-04-30T00:58:17.714Z,12.30
2019-04-30T01:00:59.747Z,12.30
2019-04-30T01:03:30.144Z,12.30
2019-04-30T01:05:59.453Z,12.40
2019-04-30T01:08:28.798Z,12.40
2019-04-30T01:10:59.707Z,12.40
2019-04-30T01:13:29.316Z,12.40
2019-04-30T01:15:58.837Z,12.50
2019-04-30T01:18:31.905Z,12.50
2019-04-30T01:21:02.883Z,12.50
2019-04-30T01:23:30.590Z,12.50
2019-04-30T01:26:00.084Z,12.50
2019-04-30T01:28:29.494Z,12.50
2019-04-30T01:31:01.944Z,12.40
2019-04-30T01:33:34.534Z,12.40
2019-04-30T01:36:04.158Z,12.50
2019-04-30T01:38:32.846Z,12.50
2019-04-30T01:41:02.311Z,12.50
2019-04-30T01:43:34.507Z,12.40
2019-04-30T01:46:09.414Z,12.30
2019-04-30T01:48:33.760Z,12.20
2019-04-30T01:51:03.072Z,12.20
2019-04-30T01:53:32.534Z,12.10
2019-04-30T01:56:19.822Z,12.10
2019-04-30T01:58:56.810Z,12.10
2019-04-30T02:01:31.289Z,12.00
2019-04-30T02:04:00.632Z,11.90
2019-04-30T02:06:30.055Z,12.00
2019-04-30T02:08:59.436Z,12.00
2019-04-30T02:11:28.962Z,12.10
2019-04-30T02:14:01.501Z,12.10
2019-04-30T02:16:32.616Z,12.10
2019-04-30T02:19:02.038Z,12.20
2019-04-30T02:21:33.348Z,12.20
2019-04-30T02:24:03.464Z,12.30
2019-04-30T02:26:32.855Z,12.20
2019-04-30T02:29:02.838Z,12.30
2019-04-30T02:31:34.646Z,12.20
2019-04-30T02:34:11.364Z,12.20
2019-04-30T02:36:45.393Z,12.10
2019-04-30T02:39:14.762Z,12.10
2019-04-30T02:41:46.539Z,12.00
2019-04-30T02:44:19.623Z,12.00
2019-04-30T02:46:51.911Z,12.10
2019-04-30T02:49:22.564Z,12.00
2019-04-30T02:51:53.397Z,12.00
2019-04-30T02:54:25.207Z,11.90
2019-04-30T02:56:56.283Z,11.90
2019-04-30T02:59:25.573Z,11.90
2019-04-30T03:01:54.902Z,11.90
2019-04-30T03:04:24.308Z,11.90
2019-04-30T03:06:53.612Z,11.90
2019-04-30T03:09:23.016Z,11.90
2019-04-30T03:11:52.507Z,11.90
2019-04-30T03:14:24.637Z,11.90
2019-04-30T03:16:55.562Z,11.90
2019-04-30T03:19:41.775Z,11.80
2019-04-30T03:22:15.464Z,11.80
2019-04-30T03:24:50.084Z,11.80
2019-04-30T03:27:21.047Z,11.80
2019-04-30T03:29:50.433Z,11.70
2019-04-30T03:32:22.274Z,11.70
2019-04-30T03:34:51.857Z,11.70
2019-04-30T03:37:21.633Z,11.70
2019-04-30T03:39:51.065Z,11.70
2019-04-30T03:42:20.352Z,11.70
2019-04-30T03:44:49.949Z,11.70
2019-04-30T03:47:20.241Z,11.70
2019-04-30T03:49:50.149Z,11.70
2019-04-30T03:52:19.875Z,11.70
2019-04-30T03:54:50.559Z,11.60
2019-04-30T03:57:25.602Z,11.70
2019-04-30T03:59:54.983Z,11.70
2019-04-30T04:02:25.939Z,11.60
2019-04-30T04:04:56.870Z,11.70
2019-04-30T04:07:31.121Z,11.60
2019-04-30T04:10:02.054Z,11.60
2019-04-30T04:12:33.231Z,11.70
2019-04-30T04:15:03.897Z,11.60
2019-04-30T04:17:35.488Z,11.70
2019-04-30T04:20:10.260Z,11.80
2019-04-30T04:22:40.347Z,11.70
2019-04-30T04:25:13.200Z,11.70
2019-04-30T04:27:42.340Z,11.60
2019-04-30T04:30:12.036Z,11.60
2019-04-30T04:32:41.573Z,11.70
2019-04-30T04:35:12.815Z,11.80
2019-04-30T04:37:42.115Z,11.80
2019-04-30T04:40:11.640Z,11.80
2019-04-30T04:42:43.709Z,11.90
2019-04-30T04:45:14.603Z,11.90
2019-04-30T04:47:43.908Z,11.90
2019-04-30T04:50:13.619Z,11.90
2019-04-30T04:52:42.932Z,11.90
2019-04-30T04:55:12.523Z,11.90
2019-04-30T04:57:41.853Z,11.80
2019-04-30T05:00:11.559Z,11.80
2019-04-30T05:02:49.775Z,11.80
2019-04-30T05:05:19.494Z,11.90
2019-04-30T05:07:48.959Z,12.00
2019-04-30T05:10:19.346Z,11.90
2019-04-30T05:12:50.587Z,11.90
2019-04-30T05:15:21.515Z,11.90
2019-04-30T05:17:50.845Z,12.00
2019-04-30T05:20:20.217Z,12.00
2019-04-30T05:22:49.547Z,12.00
2019-04-30T05:25:18.911Z,12.00
2019-04-30T05:27:48.863Z,12.00
2019-04-30T05:30:19.828Z,11.90
2019-04-30T05:32:50.872Z,11.90
2019-04-30T05:35:20.361Z,11.90
2019-04-30T05:37:49.659Z,12.00
2019-04-30T05:40:19.116Z,12.00
2019-04-30T05:42:49.611Z,11.90
2019-04-30T05:45:19.381Z,11.90
2019-04-30T05:47:50.496Z,11.90
2019-04-30T05:50:20.116Z,12.00
2019-04-30T05:52:50.789Z,11.90
2019-04-30T05:55:20.103Z,12.00
2019-04-30T05:57:55.924Z,11.90
2019-04-30T06:00:21.200Z,11.90
2019-04-30T06:02:51.259Z,11.90
2019-04-30T06:05:23.663Z,11.90
2019-04-30T06:07:55.493Z,11.90
2019-04-30T06:10:29.573Z,12.00
2019-04-30T06:13:00.574Z,12.00
2019-04-30T06:15:34.972Z,12.00
2019-04-30T06:18:12.840Z,12.00
2019-04-30T06:20:35.457Z,12.10
2019-04-30T06:23:04.971Z,12.10
2019-04-30T06:25:54.845Z,12.00
2019-04-30T06:28:05.787Z,12.10
2019-04-30T06:30:35.635Z,12.10
2019-04-30T06:33:05.022Z,12.10
2019-04-30T06:35:34.525Z,12.10
2019-04-30T06:38:04.157Z,12.20
2019-04-30T06:40:33.683Z,12.20
2019-04-30T06:43:03.319Z,12.20
2019-04-30T06:45:33.004Z,12.30
2019-04-30T06:48:04.340Z,12.30
2019-04-30T06:50:33.695Z,12.40
2019-04-30T06:53:05.853Z,12.50
2019-04-30T06:55:35.223Z,12.50
2019-04-30T06:58:14.721Z,12.60
2019-04-30T07:00:39.593Z,12.70
2019-04-30T07:03:09.675Z,12.70
2019-04-30T07:05:39.404Z,12.90
2019-04-30T07:08:37.369Z,13.00
2019-04-30T07:11:15.574Z,13.10
2019-04-30T07:13:46.500Z,13.30
2019-04-30T07:16:15.871Z,13.50
2019-04-30T07:18:45.617Z,13.70
2019-04-30T07:21:15.110Z,13.80
2019-04-30T07:23:44.709Z,13.90
2019-04-30T07:26:22.712Z,14.10
2019-04-30T07:28:54.080Z,14.20
2019-04-30T07:31:19.357Z,14.30
2019-04-30T07:33:53.120Z,14.50
2019-04-30T07:36:19.852Z,14.60
2019-04-30T07:38:54.509Z,14.60
2019-04-30T07:41:23.006Z,14.70
2019-04-30T07:43:52.291Z,14.70
2019-04-30T07:46:21.624Z,14.80
2019-04-30T07:48:53.614Z,15.00
2019-04-30T07:51:23.551Z,15.10
2019-04-30T07:53:53.350Z,15.00
2019-04-30T07:56:28.043Z,15.00
2019-04-30T07:58:53.749Z,15.10
2019-04-30T08:01:23.103Z,15.00
2019-04-30T08:03:58.869Z,15.00
2019-04-30T08:06:31.013Z,15.00
2019-04-30T08:09:01.079Z,15.10
2019-04-30T08:11:34.472Z,15.20
2019-04-30T08:14:02.016Z,15.10
2019-04-30T08:16:31.775Z,15.30
2019-04-30T08:19:01.137Z,15.50
2019-04-30T08:21:30.574Z,15.60
2019-04-30T08:24:01.075Z,15.70
2019-04-30T08:26:30.639Z,15.80
2019-04-30T08:28:59.996Z,15.80
2019-04-30T08:31:29.397Z,15.60
2019-04-30T08:33:59.230Z,15.70
2019-04-30T08:36:29.853Z,15.70
2019-04-30T08:38:59.809Z,15.80
2019-04-30T08:41:29.503Z,15.80
2019-04-30T08:43:59.836Z,15.80
2019-04-30T08:46:29.911Z,15.70
2019-04-30T08:49:00.913Z,15.70
2019-04-30T08:51:31.963Z,15.70
2019-04-30T08:54:02.055Z,15.60
2019-04-30T08:56:34.174Z,15.60
2019-04-30T08:59:03.631Z,15.70
2019-04-30T09:01:32.986Z,15.80
2019-04-30T09:04:02.278Z,15.90
2019-04-30T09:06:31.760Z,15.90
2019-04-30T09:09:10.704Z,16.00
2019-04-30T09:11:49.952Z,16.20
2019-04-30T09:14:09.271Z,16.20
2019-04-30T09:16:41.397Z,16.10
2019-04-30T09:19:15.509Z,16.10
2019-04-30T09:21:44.803Z,16.10
2019-04-30T09:24:14.158Z,16.30
2019-04-30T09:26:45.938Z,16.30
2019-04-30T09:29:15.251Z,16.40
2019-04-30T09:31:44.618Z,16.50
2019-04-30T09:34:17.754Z,16.70
2019-04-30T09:36:44.906Z,16.80
2019-04-30T09:39:14.214Z,16.90
2019-04-30T09:41:46.558Z,16.90
2019-04-30T09:44:15.930Z,16.90
2019-04-30T09:46:48.906Z,16.80
2019-04-30T09:49:19.440Z,16.80
2019-04-30T09:51:49.827Z,16.80
2019-04-30T09:54:20.259Z,16.70
2019-04-30T09:56:52.600Z,16.60
2019-04-30T09:59:20.973Z,16.80
2019-04-30T10:01:50.340Z,16.80
2019-04-30T10:04:20.670Z,16.80
2019-04-30T10:06:50.578Z,16.90
2019-04-30T10:09:20.052Z,17.00
2019-04-30T10:11:59.437Z,17.10
2019-04-30T10:14:30.297Z,17.30
2019-04-30T10:17:18.993Z,17.20
2019-04-30T10:19:49.185Z,17.30
2019-04-30T10:22:18.743Z,17.30
2019-04-30T10:24:51.264Z,17.30
2019-04-30T10:27:20.682Z,17.40
2019-04-30T10:29:50.216Z,17.40
2019-04-30T10:32:19.637Z,17.40
2019-04-30T10:34:49.106Z,17.30
2019-04-30T10:37:18.992Z,17.40
2019-04-30T10:39:48.986Z,17.50
2019-04-30T10:42:18.438Z,17.30
2019-04-30T10:44:47.752Z,17.20
2019-04-30T10:47:19.164Z,17.20
2019-04-30T10:49:48.695Z,17.40
2019-04-30T10:52:19.218Z,17.50
2019-04-30T10:54:49.628Z,17.60
2019-04-30T10:57:19.115Z,17.70
2019-04-30T10:59:48.756Z,17.70
2019-04-30T11:02:18.174Z,17.70
2019-04-30T11:04:47.527Z,17.60
2019-04-30T11:07:18.539Z,17.60
2019-04-30T11:09:49.318Z,17.30
2019-04-30T11:12:19.346Z,17.20
2019-04-30T11:14:48.710Z,17.30
2019-04-30T11:17:19.745Z,17.40
2019-04-30T11:19:49.324Z,17.30
2019-04-30T11:22:19.037Z,17.30
2019-04-30T11:24:58.894Z,17.20
2019-04-30T11:27:20.670Z,17.20
2019-04-30T11:29:52.319Z,17.00
2019-04-30T11:32:23.889Z,17.00
2019-04-30T11:34:53.334Z,17.10
2019-04-30T11:37:23.622Z,16.80
2019-04-30T11:39:52.941Z,16.90
2019-04-30T11:42:24.946Z,16.90
2019-04-30T11:44:54.266Z,17.00
2019-04-30T11:47:24.578Z,17.00
2019-04-30T11:49:54.134Z,17.10
2019-04-30T11:52:25.234Z,17.00
2019-04-30T11:54:54.879Z,16.80
2019-04-30T11:57:24.331Z,16.90
2019-04-30T11:59:53.768Z,16.90
2019-04-30T12:02:29.620Z,17.00
2019-04-30T12:04:59.038Z,17.10
2019-04-30T12:07:30.082Z,17.20
2019-04-30T12:10:05.502Z,17.10
2019-04-30T12:12:35.154Z,17.10
2019-04-30T12:15:09.375Z,17.00
2019-04-30T12:17:38.718Z,17.10
2019-04-30T12:20:08.704Z,17.10
2019-04-30T12:22:41.094Z,17.10
2019-04-30T12:25:10.547Z,17.10
2019-04-30T12:27:39.834Z,17.00
2019-04-30T12:30:11.482Z,16.90
2019-04-30T12:32:40.772Z,17.00
2019-04-30T12:35:11.894Z,17.00
2019-04-30T12:37:43.850Z,16.90
2019-04-30T12:40:25.814Z,16.90
2019-04-30T12:42:48.636Z,16.80
2019-04-30T12:45:19.464Z,16.80
2019-04-30T12:47:50.492Z,16.90
2019-04-30T12:50:22.372Z,17.10
2019-04-30T12:52:59.626Z,17.10
2019-04-30T12:55:39.832Z,17.00
2019-04-30T12:58:12.030Z,17.00
2019-04-30T13:00:44.624Z,17.10
2019-04-30T13:03:13.951Z,17.10
2019-04-30T13:05:46.411Z,17.20
2019-04-30T13:08:17.760Z,17.40
2019-04-30T13:10:49.182Z,17.60
2019-04-30T13:13:21.549Z,17.70
2019-04-30T13:15:51.439Z,17.60
2019-04-30T13:18:23.483Z,17.60
2019-04-30T13:20:53.277Z,17.80
2019-04-30T13:23:24.184Z,17.70
2019-04-30T13:25:56.037Z,17.80
2019-04-30T13:28:27.103Z,17.90
2019-04-30T13:30:56.498Z,18.00
2019-04-30T13:33:28.833Z,18.10
2019-04-30T13:36:02.093Z,18.30
2019-04-30T13:38:47.451Z,18.30
2019-04-30T13:41:20.926Z,18.10
2019-04-30T13:43:54.808Z,18.00
2019-04-30T13:46:25.835Z,18.20
2019-04-30T13:48:55.129Z,18.20
2019-04-30T13:51:24.479Z,18.30
2019-04-30T13:53:56.630Z,18.10
2019-04-30T13:56:26.014Z,18.10
2019-04-30T13:58:55.314Z,17.90
2019-04-30T14:01:24.788Z,17.80
2019-04-30T14:03:58.991Z,17.60
2019-04-30T14:06:30.538Z,17.70
2019-04-30T14:09:10.476Z,17.80
2019-04-30T14:11:39.786Z,17.80
2019-04-30T14:14:09.276Z,18.00
2019-04-30T14:16:40.298Z,18.00
2019-04-30T14:19:09.834Z,18.00
2019-04-30T14:21:39.335Z,17.90
2019-04-30T14:24:09.469Z,17.90
2019-04-30T14:26:39.228Z,18.10
2019-04-30T14:29:08.686Z,18.10
2019-04-30T14:31:38.827Z,18.30
2019-04-30T14:34:10.089Z,18.40
2019-04-30T14:36:41.262Z,18.50
2019-04-30T14:39:16.996Z,18.20
2019-04-30T14:41:42.971Z,18.10
2019-04-30T14:44:14.937Z,17.80
2019-04-30T14:46:59.320Z,17.80
2019-04-30T14:49:31.291Z,17.80
2019-04-30T14:52:01.294Z,17.80
2019-04-30T14:54:32.336Z,17.90
2019-04-30T14:57:03.385Z,18.10
2019-04-30T14:59:40.175Z,18.30
2019-04-30T15:02:19.916Z,18.40
2019-04-30T15:04:50.884Z,18.60
2019-04-30T15:07:22.707Z,18.80
2019-04-30T15:09:52.043Z,18.80
2019-04-30T15:12:24.327Z,18.80
2019-04-30T15:14:53.707Z,18.40
2019-04-30T15:17:24.535Z,18.00
2019-04-30T15:19:54.578Z,17.70
2019-04-30T15:22:23.971Z,17.80
2019-04-30T15:24:53.287Z,17.70
2019-04-30T15:27:22.696Z,17.70
2019-04-30T15:29:57.058Z,17.80
2019-04-30T15:32:23.325Z,17.80
2019-04-30T15:34:52.702Z,17.80
2019-04-30T15:37:23.993Z,17.80
2019-04-30T15:39:53.207Z,17.80
2019-04-30T15:42:24.227Z,18.00
2019-04-30T15:44:53.627Z,18.10
2019-04-30T15:47:24.718Z,18.20
2019-04-30T15:49:55.698Z,18.20
2019-04-30T15:52:28.875Z,18.30
2019-04-30T15:55:01.248Z,18.20
2019-04-30T15:57:34.757Z,18.20
2019-04-30T16:00:07.425Z,18.30
2019-04-30T16:02:38.862Z,18.00
2019-04-30T16:05:15.746Z,17.90
2019-04-30T16:07:53.327Z,17.90
2019-04-30T16:10:30.343Z,17.70
2019-04-30T16:13:11.525Z,17.70
2019-04-30T16:15:43.597Z,17.90
2019-04-30T16:18:15.934Z,18.00
2019-04-30T16:20:45.427Z,18.00
2019-04-30T16:23:19.161Z,17.80
2019-04-30T16:25:53.291Z,17.60
2019-04-30T16:28:22.586Z,17.40
2019-04-30T16:30:52.077Z,17.30
2019-04-30T16:33:21.487Z,17.10
2019-04-30T16:35:55.297Z,17.20
2019-04-30T16:38:24.649Z,17.20
2019-04-30T16:40:53.981Z,17.30
2019-04-30T16:43:23.875Z,17.40
2019-04-30T16:45:53.397Z,17.40
2019-04-30T16:48:22.853Z,17.50
2019-04-30T16:50:52.309Z,17.40
2019-04-30T16:53:21.617Z,17.40
2019-04-30T16:55:50.981Z,17.30
2019-04-30T16:58:20.719Z,17.10
2019-04-30T17:00:50.179Z,17.00
2019-04-30T17:03:28.714Z,16.90
2019-04-30T17:06:00.659Z,16.60
2019-04-30T17:08:45.367Z,16.50
2019-04-30T17:11:32.529Z,16.40
2019-04-30T17:14:02.613Z,16.30
2019-04-30T17:16:33.605Z,16.20
2019-04-30T17:19:03.377Z,16.10
2019-04-30T17:21:34.422Z,16.00
2019-04-30T17:24:04.889Z,16.10
2019-04-30T17:26:34.298Z,16.10
2019-04-30T17:29:04.967Z,16.00
2019-04-30T17:31:34.295Z,16.00
2019-04-30T17:34:05.145Z,16.00
2019-04-30T17:36:35.345Z,16.10
2019-04-30T17:39:09.375Z,16.10
2019-04-30T17:41:41.915Z,15.90
2019-04-30T17:44:11.284Z,15.90
2019-04-30T17:46:40.739Z,15.80
2019-04-30T17:49:10.392Z,15.70
2019-04-30T17:51:41.508Z,15.50
2019-04-30T17:54:16.999Z,15.40
2019-04-30T17:56:48.537Z,15.40
2019-04-30T17:59:18.197Z,15.30
2019-04-30T18:01:51.065Z,15.30
2019-04-30T18:04:22.685Z,15.20
2019-04-30T18:06:52.743Z,15.10
2019-04-30T18:09:24.743Z,15.10
2019-04-30T18:11:59.689Z,15.10
2019-04-30T18:14:29.723Z,14.90
2019-04-30T18:16:59.519Z,14.90
2019-04-30T18:19:45.459Z,14.80
2019-04-30T18:22:35.704Z,14.80
2019-04-30T18:25:13.037Z,14.70
2019-04-30T18:27:46.327Z,14.70
2019-04-30T18:30:16.943Z,14.70
2019-04-30T18:32:46.387Z,14.50
2019-04-30T18:35:15.745Z,14.50
2019-04-30T18:37:45.111Z,14.30
2019-04-30T18:40:18.640Z,14.20
2019-04-30T18:42:49.471Z,14.20
2019-04-30T18:45:19.514Z,14.10
2019-04-30T18:47:48.901Z,14.10
2019-04-30T18:50:18.389Z,14.00
2019-04-30T18:52:48.717Z,14.00
2019-04-30T18:55:19.683Z,13.90
2019-04-30T18:57:56.700Z,13.80
2019-04-30T19:00:26.551Z,13.70
2019-04-30T19:02:58.535Z,13.70
2019-04-30T19:05:30.916Z,13.60
2019-04-30T19:08:01.362Z,13.40
2019-04-30T19:10:37.559Z,13.40
2019-04-30T19:13:09.248Z,13.30
2019-04-30T19:16:18.133Z,13.20
2019-04-30T19:18:24.995Z,13.10
2019-04-30T19:20:56.437Z,13.00
2019-04-30T19:23:25.723Z,13.00
2019-04-30T19:25:59.578Z,12.90
2019-04-30T19:28:28.826Z,12.80
2019-04-30T19:31:00.940Z,12.80
2019-04-30T19:33:31.192Z,12.70
2019-04-30T19:36:00.498Z,12.70
2019-04-30T19:38:29.789Z,12.70
2019-04-30T19:40:59.259Z,12.60
2019-04-30T19:43:28.702Z,12.60
2019-04-30T19:46:00.973Z,12.60
2019-04-30T19:48:32.897Z,12.60
2019-04-30T19:51:03.230Z,12.50
2019-04-30T19:53:32.608Z,12.50
2019-04-30T19:56:02.013Z,12.40
2019-04-30T19:58:48.083Z,12.40
2019-04-30T20:01:06.103Z,12.30
2019-04-30T20:03:35.394Z,12.30
2019-04-30T20:06:04.823Z,12.20
2019-04-30T20:08:35.287Z,12.20
2019-04-30T20:11:04.873Z,12.10
2019-04-30T20:13:37.311Z,12.10
2019-04-30T20:16:09.593Z,12.00
2019-04-30T20:18:39.167Z,12.00
2019-04-30T20:21:10.230Z,11.90
2019-04-30T20:23:39.602Z,11.90
2019-04-30T20:26:11.668Z,11.80
2019-04-30T20:28:42.511Z,11.80
2019-04-30T20:31:11.962Z,11.80
2019-04-30T20:33:41.258Z,11.70
2019-04-30T20:36:13.355Z,11.70
2019-04-30T20:38:44.276Z,11.70
2019-04-30T20:41:13.667Z,11.70
2019-04-30T20:43:43.772Z,11.60
2019-04-30T20:46:13.154Z,11.60
2019-04-30T20:48:42.526Z,11.50
2019-04-30T20:51:11.924Z,11.50
2019-04-30T20:53:41.290Z,11.40
2019-04-30T20:56:10.659Z,11.40
2019-04-30T20:58:54.544Z,11.40
2019-04-30T21:01:11.994Z,11.40
2019-04-30T21:03:44.370Z,11.30
2019-04-30T21:06:13.914Z,11.30
2019-04-30T21:08:43.350Z,11.20
2019-04-30T21:11:12.746Z,11.20
2019-04-30T21:13:42.348Z,11.10
2019-04-30T21:16:13.632Z,11.10
2019-04-30T21:18:44.348Z,11.10
2019-04-30T21:21:14.722Z,11.10
2019-04-30T21:23:44.604Z,11.10
2019-04-30T21:26:13.994Z,11.00
2019-04-30T21:28:43.394Z,11.00
2019-04-30T21:31:29.524Z,11.00
2019-04-30T21:34:00.641Z,11.00
2019-04-30T21:36:30.120Z,10.90
2019-04-30T21:38:59.441Z,10.90
2019-04-30T21:41:29.653Z,10.90
2019-04-30T21:43:59.140Z,10.80
2019-04-30T21:46:29.351Z,10.80
2019-04-30T21:48:58.851Z,10.80
2019-04-30T21:51:28.251Z,10.70
2019-04-30T21:53:57.698Z,10.70
2019-04-30T21:56:27.644Z,10.70
2019-04-30T21:59:00.293Z,10.60
2019-04-30T22:01:30.018Z,10.60
2019-04-30T22:03:59.394Z,10.60
2019-04-30T22:06:32.375Z,10.60
2019-04-30T22:09:01.684Z,10.60
2019-04-30T22:11:30.986Z,10.60
2019-04-30T22:14:00.774Z,10.60
2019-04-30T22:16:33.926Z,10.60
2019-04-30T22:19:03.306Z,10.60
2019-04-30T22:21:35.604Z,10.60
2019-04-30T22:24:05.006Z,10.50
2019-04-30T22:26:34.563Z,10.60
2019-04-30T22:29:06.832Z,10.60
2019-04-30T22:31:36.224Z,10.50
2019-04-30T22:34:05.748Z,10.50
2019-04-30T22:36:38.646Z,10.50
2019-04-30T22:39:12.239Z,10.50
2019-04-30T22:41:44.331Z,10.50
2019-04-30T22:44:13.800Z,10.50
2019-04-30T22:46:43.202Z,10.50
2019-04-30T22:49:12.610Z,10.50
2019-04-30T22:51:41.994Z,10.50
2019-04-30T22:54:12.309Z,10.40
2019-04-30T22:56:44.312Z,10.40
2019-04-30T22:59:13.654Z,10.40
2019-04-30T23:01:53.446Z,10.30
2019-04-30T23:04:26.950Z,10.30
2019-04-30T23:06:56.320Z,10.20
2019-04-30T23:09:28.538Z,10.20
2019-04-30T23:12:00.980Z,10.10
2019-04-30T23:14:30.372Z,10.10
2019-04-30T23:17:03.894Z,10.10
2019-04-30T23:19:33.272Z,10.10
2019-04-30T23:22:02.647Z,10.00
2019-04-30T23:24:35.920Z,10.00
2019-04-30T23:27:07.112Z,10.00
2019-04-30T23:29:38.290Z,10.00
2019-04-30T23:32:07.654Z,10.00
2019-04-30T23:34:36.976Z,10.00
2019-04-30T23:37:07.160Z,10.00
2019-04-30T23:39:39.228Z,9.90
2019-04-30T23:42:11.223Z,9.90
2019-04-30T23:44:43.763Z,9.90
2019-04-30T23:47:13.043Z,9.80
2019-04-30T23:49:42.369Z,9.80
2019-04-30T23:52:11.678Z,9.80
2019-04-30T23:54:40.964Z,9.80
2019-04-30T23:57:10.356Z,9.70
2019-04-30T23:59:39.821Z,9.70
